sensor_id;sensor_type;location;lat;lon;timestamp;P1;durP1;ratioP1;P2;durP2;ratioP2
43945;SDS011;29599;51.196;4.428;2022-09-09T00:02:19;8.15;;;2.60;;
43945;SDS011;29599;51.196;4.428;2022-09-09T00:07:52;5.68;;;2.75;;
43945;SDS011;29599;51.196;4.428;2022-09-09T00:10:28;6.00;;;2.67;;
43945;SDS011;29599;51.196;4.428;2022-09-09T00:15:29;13.45;;;4.85;;
43945;SDS011;29599;51.196;4.428;2022-09-09T00:21:07;37.42;;;11.23;;
43945;SDS011;29599;51.196;4.428;2022-09-09T00:23:39;15.38;;;5.45;;
43945;SDS011;29599;51.196;4.428;2022-09-09T00:31:25;9.52;;;2.95;;
43945;SDS011;29599;51.196;4.428;2022-09-09T00:33:53;4.53;;;2.35;;
43945;SDS011;29599;51.196;4.428;2022-09-09T00:38:52;6.82;;;2.25;;
43945;SDS011;29599;51.196;4.428;2022-09-09T00:41:41;5.80;;;2.45;;
43945;SDS011;29599;51.196;4.428;2022-09-09T00:46:56;5.15;;;2.03;;
43945;SDS011;29599;51.196;4.428;2022-09-09T00:49:47;5.45;;;1.83;;
43945;SDS011;29599;51.196;4.428;2022-09-09T00:57:29;7.90;;;1.83;;
43945;SDS011;29599;51.196;4.428;2022-09-09T01:04:50;7.93;;;2.20;;
43945;SDS011;29599;51.196;4.428;2022-09-09T01:07:16;6.97;;;1.92;;
43945;SDS011;29599;51.196;4.428;2022-09-09T01:12:28;7.75;;;2.13;;
43945;SDS011;29599;51.196;4.428;2022-09-09T01:15:14;10.68;;;2.28;;
43945;SDS011;29599;51.196;4.428;2022-09-09T01:23:43;4.85;;;1.67;;
43945;SDS011;29599;51.196;4.428;2022-09-09T01:29:01;7.68;;;2.60;;
43945;SDS011;29599;51.196;4.428;2022-09-09T01:34:16;11.73;;;2.65;;
43945;SDS011;29599;51.196;4.428;2022-09-09T01:36:43;6.43;;;2.13;;
43945;SDS011;29599;51.196;4.428;2022-09-09T01:39:25;9.80;;;2.35;;
43945;SDS011;29599;51.196;4.428;2022-09-09T01:41:51;7.72;;;1.98;;
43945;SDS011;29599;51.196;4.428;2022-09-09T01:44:17;6.75;;;2.38;;
43945;SDS011;29599;51.196;4.428;2022-09-09T01:46:44;3.00;;;1.83;;
43945;SDS011;29599;51.196;4.428;2022-09-09T01:49:10;7.05;;;2.40;;
43945;SDS011;29599;51.196;4.428;2022-09-09T01:51:36;6.03;;;2.10;;
43945;SDS011;29599;51.196;4.428;2022-09-09T01:54:04;4.40;;;2.17;;
43945;SDS011;29599;51.196;4.428;2022-09-09T01:56:43;9.50;;;2.17;;
43945;SDS011;29599;51.196;4.428;2022-09-09T02:02:38;7.10;;;2.08;;
43945;SDS011;29599;51.196;4.428;2022-09-09T02:07:59;5.38;;;1.67;;
43945;SDS011;29599;51.196;4.428;2022-09-09T02:10:37;6.22;;;2.00;;
43945;SDS011;29599;51.196;4.428;2022-09-09T02:13:11;7.85;;;2.30;;
43945;SDS011;29599;51.196;4.428;2022-09-09T02:18:38;5.00;;;2.13;;
43945;SDS011;29599;51.196;4.428;2022-09-09T02:21:13;6.50;;;1.98;;
43945;SDS011;29599;51.196;4.428;2022-09-09T02:23:41;7.40;;;1.95;;
43945;SDS011;29599;51.196;4.428;2022-09-09T02:26:11;7.50;;;2.05;;
43945;SDS011;29599;51.196;4.428;2022-09-09T02:28:44;7.10;;;1.80;;
43945;SDS011;29599;51.196;4.428;2022-09-09T02:31:12;5.63;;;2.15;;
43945;SDS011;29599;51.196;4.428;2022-09-09T02:33:43;4.53;;;1.50;;
43945;SDS011;29599;51.196;4.428;2022-09-09T02:36:12;9.35;;;2.25;;
43945;SDS011;29599;51.196;4.428;2022-09-09T02:38:45;7.38;;;2.03;;
43945;SDS011;29599;51.196;4.428;2022-09-09T02:41:22;7.70;;;1.63;;
43945;SDS011;29599;51.196;4.428;2022-09-09T02:43:50;5.20;;;1.73;;
43945;SDS011;29599;51.196;4.428;2022-09-09T02:59:16;6.38;;;1.92;;
43945;SDS011;29599;51.196;4.428;2022-09-09T03:01:42;6.70;;;1.85;;
43945;SDS011;29599;51.196;4.428;2022-09-09T03:04:09;9.25;;;2.25;;
43945;SDS011;29599;51.196;4.428;2022-09-09T03:06:34;7.00;;;1.98;;
43945;SDS011;29599;51.196;4.428;2022-09-09T03:09:00;8.25;;;2.30;;
43945;SDS011;29599;51.196;4.428;2022-09-09T03:11:27;9.48;;;2.20;;
43945;SDS011;29599;51.196;4.428;2022-09-09T03:13:53;7.90;;;2.20;;
43945;SDS011;29599;51.196;4.428;2022-09-09T03:16:21;5.43;;;1.88;;
43945;SDS011;29599;51.196;4.428;2022-09-09T03:18:47;16.45;;;2.42;;
43945;SDS011;29599;51.196;4.428;2022-09-09T03:21:13;9.68;;;1.90;;
43945;SDS011;29599;51.196;4.428;2022-09-09T03:23:39;9.80;;;2.03;;
43945;SDS011;29599;51.196;4.428;2022-09-09T03:26:05;7.88;;;1.88;;
43945;SDS011;29599;51.196;4.428;2022-09-09T03:28:31;11.35;;;2.20;;
43945;SDS011;29599;51.196;4.428;2022-09-09T03:31:00;8.20;;;1.83;;
43945;SDS011;29599;51.196;4.428;2022-09-09T03:33:27;12.02;;;2.08;;
43945;SDS011;29599;51.196;4.428;2022-09-09T03:35:53;8.00;;;1.77;;
43945;SDS011;29599;51.196;4.428;2022-09-09T03:38:21;11.32;;;2.30;;
43945;SDS011;29599;51.196;4.428;2022-09-09T03:40:54;10.20;;;2.28;;
43945;SDS011;29599;51.196;4.428;2022-09-09T03:43:22;6.85;;;2.03;;
43945;SDS011;29599;51.196;4.428;2022-09-09T03:45:48;11.57;;;2.67;;
43945;SDS011;29599;51.196;4.428;2022-09-09T03:48:15;9.73;;;2.10;;
43945;SDS011;29599;51.196;4.428;2022-09-09T03:50:51;11.98;;;2.17;;
43945;SDS011;29599;51.196;4.428;2022-09-09T03:53:18;7.78;;;2.00;;
43945;SDS011;29599;51.196;4.428;2022-09-09T03:55:47;11.45;;;2.72;;
43945;SDS011;29599;51.196;4.428;2022-09-09T03:58:15;9.30;;;2.30;;
43945;SDS011;29599;51.196;4.428;2022-09-09T04:00:43;13.40;;;3.03;;
43945;SDS011;29599;51.196;4.428;2022-09-09T04:03:17;12.27;;;2.40;;
43945;SDS011;29599;51.196;4.428;2022-09-09T04:05:43;13.63;;;2.47;;
43945;SDS011;29599;51.196;4.428;2022-09-09T04:08:09;12.10;;;2.35;;
43945;SDS011;29599;51.196;4.428;2022-09-09T04:10:35;8.38;;;2.05;;
43945;SDS011;29599;51.196;4.428;2022-09-09T04:13:03;9.18;;;2.00;;
43945;SDS011;29599;51.196;4.428;2022-09-09T04:15:30;10.18;;;2.65;;
43945;SDS011;29599;51.196;4.428;2022-09-09T04:17:56;11.15;;;2.13;;
43945;SDS011;29599;51.196;4.428;2022-09-09T04:20:22;10.82;;;2.20;;
43945;SDS011;29599;51.196;4.428;2022-09-09T04:22:48;11.38;;;2.53;;
43945;SDS011;29599;51.196;4.428;2022-09-09T04:25:13;14.10;;;2.25;;
43945;SDS011;29599;51.196;4.428;2022-09-09T04:27:39;16.35;;;2.42;;
43945;SDS011;29599;51.196;4.428;2022-09-09T04:30:05;10.02;;;2.47;;
43945;SDS011;29599;51.196;4.428;2022-09-09T04:32:35;9.40;;;2.45;;
43945;SDS011;29599;51.196;4.428;2022-09-09T04:35:02;15.50;;;3.88;;
43945;SDS011;29599;51.196;4.428;2022-09-09T04:37:28;12.52;;;2.03;;
43945;SDS011;29599;51.196;4.428;2022-09-09T04:39:53;13.60;;;2.58;;
43945;SDS011;29599;51.196;4.428;2022-09-09T04:42:19;10.13;;;1.98;;
43945;SDS011;29599;51.196;4.428;2022-09-09T04:44:44;7.72;;;2.10;;
43945;SDS011;29599;51.196;4.428;2022-09-09T04:47:10;11.85;;;2.03;;
43945;SDS011;29599;51.196;4.428;2022-09-09T04:49:36;14.00;;;2.20;;
43945;SDS011;29599;51.196;4.428;2022-09-09T04:52:03;14.38;;;2.20;;
43945;SDS011;29599;51.196;4.428;2022-09-09T04:54:29;10.07;;;2.42;;
43945;SDS011;29599;51.196;4.428;2022-09-09T04:56:55;15.27;;;2.60;;
43945;SDS011;29599;51.196;4.428;2022-09-09T04:59:20;16.52;;;2.85;;
43945;SDS011;29599;51.196;4.428;2022-09-09T05:01:47;11.75;;;2.20;;
43945;SDS011;29599;51.196;4.428;2022-09-09T05:04:13;10.38;;;2.25;;
43945;SDS011;29599;51.196;4.428;2022-09-09T05:06:40;8.38;;;1.92;;
43945;SDS011;29599;51.196;4.428;2022-09-09T05:09:06;14.88;;;2.20;;
43945;SDS011;29599;51.196;4.428;2022-09-09T05:11:32;14.77;;;2.83;;
43945;SDS011;29599;51.196;4.428;2022-09-09T05:14:01;12.60;;;2.63;;
43945;SDS011;29599;51.196;4.428;2022-09-09T05:16:26;13.48;;;2.40;;
43945;SDS011;29599;51.196;4.428;2022-09-09T05:18:52;13.55;;;2.83;;
43945;SDS011;29599;51.196;4.428;2022-09-09T05:21:19;11.73;;;2.20;;
43945;SDS011;29599;51.196;4.428;2022-09-09T05:23:46;9.38;;;2.70;;
43945;SDS011;29599;51.196;4.428;2022-09-09T05:26:13;9.63;;;2.22;;
43945;SDS011;29599;51.196;4.428;2022-09-09T05:28:41;19.85;;;2.67;;
43945;SDS011;29599;51.196;4.428;2022-09-09T05:31:07;12.25;;;2.63;;
43945;SDS011;29599;51.196;4.428;2022-09-09T05:33:34;15.07;;;2.78;;
43945;SDS011;29599;51.196;4.428;2022-09-09T05:38:31;9.70;;;2.47;;
43945;SDS011;29599;51.196;4.428;2022-09-09T05:40:58;13.93;;;2.35;;
43945;SDS011;29599;51.196;4.428;2022-09-09T05:43:24;15.38;;;2.70;;
43945;SDS011;29599;51.196;4.428;2022-09-09T05:46:03;10.52;;;3.08;;
43945;SDS011;29599;51.196;4.428;2022-09-09T05:48:41;7.35;;;1.77;;
43945;SDS011;29599;51.196;4.428;2022-09-09T05:51:09;17.75;;;3.00;;
43945;SDS011;29599;51.196;4.428;2022-09-09T05:53:40;15.85;;;2.85;;
43945;SDS011;29599;51.196;4.428;2022-09-09T05:56:07;23.52;;;3.08;;
43945;SDS011;29599;51.196;4.428;2022-09-09T05:58:37;14.85;;;2.78;;
43945;SDS011;29599;51.196;4.428;2022-09-09T06:03:31;16.15;;;2.42;;
43945;SDS011;29599;51.196;4.428;2022-09-09T06:06:01;16.80;;;2.75;;
43945;SDS011;29599;51.196;4.428;2022-09-09T06:08:35;16.25;;;3.00;;
43945;SDS011;29599;51.196;4.428;2022-09-09T06:11:07;14.10;;;2.90;;
43945;SDS011;29599;51.196;4.428;2022-09-09T06:13:34;19.42;;;2.85;;
43945;SDS011;29599;51.196;4.428;2022-09-09T06:16:02;10.45;;;2.30;;
43945;SDS011;29599;51.196;4.428;2022-09-09T06:18:29;13.27;;;2.97;;
43945;SDS011;29599;51.196;4.428;2022-09-09T06:20:59;15.43;;;2.65;;
43945;SDS011;29599;51.196;4.428;2022-09-09T06:23:26;12.73;;;2.13;;
43945;SDS011;29599;51.196;4.428;2022-09-09T06:28:33;13.20;;;2.70;;
43945;SDS011;29599;51.196;4.428;2022-09-09T06:31:00;16.50;;;3.00;;
43945;SDS011;29599;51.196;4.428;2022-09-09T06:33:26;17.48;;;2.97;;
43945;SDS011;29599;51.196;4.428;2022-09-09T06:35:55;16.95;;;3.33;;
43945;SDS011;29599;51.196;4.428;2022-09-09T06:38:22;14.45;;;2.50;;
43945;SDS011;29599;51.196;4.428;2022-09-09T06:40:52;15.55;;;2.83;;
43945;SDS011;29599;51.196;4.428;2022-09-09T06:43:24;17.27;;;4.28;;
43945;SDS011;29599;51.196;4.428;2022-09-09T06:45:57;20.40;;;2.88;;
43945;SDS011;29599;51.196;4.428;2022-09-09T06:48:24;15.65;;;2.47;;
43945;SDS011;29599;51.196;4.428;2022-09-09T06:50:51;12.80;;;2.70;;
43945;SDS011;29599;51.196;4.428;2022-09-09T06:53:37;11.63;;;2.60;;
43945;SDS011;29599;51.196;4.428;2022-09-09T06:58:40;14.00;;;2.40;;
43945;SDS011;29599;51.196;4.428;2022-09-09T07:01:10;15.00;;;2.97;;
43945;SDS011;29599;51.196;4.428;2022-09-09T07:03:37;10.45;;;1.92;;
43945;SDS011;29599;51.196;4.428;2022-09-09T07:06:04;12.98;;;3.05;;
43945;SDS011;29599;51.196;4.428;2022-09-09T07:08:31;12.63;;;3.03;;
43945;SDS011;29599;51.196;4.428;2022-09-09T07:11:03;11.25;;;2.63;;
43945;SDS011;29599;51.196;4.428;2022-09-09T07:13:30;12.88;;;2.85;;
43945;SDS011;29599;51.196;4.428;2022-09-09T07:16:03;14.80;;;2.85;;
43945;SDS011;29599;51.196;4.428;2022-09-09T07:18:34;12.50;;;2.70;;
43945;SDS011;29599;51.196;4.428;2022-09-09T07:21:01;18.52;;;3.00;;
43945;SDS011;29599;51.196;4.428;2022-09-09T07:23:28;11.77;;;2.92;;
43945;SDS011;29599;51.196;4.428;2022-09-09T07:25:55;14.10;;;2.83;;
43945;SDS011;29599;51.196;4.428;2022-09-09T07:28:22;9.10;;;2.17;;
43945;SDS011;29599;51.196;4.428;2022-09-09T07:30:57;15.05;;;2.50;;
43945;SDS011;29599;51.196;4.428;2022-09-09T07:33:25;12.73;;;2.92;;
43945;SDS011;29599;51.196;4.428;2022-09-09T07:35:51;12.55;;;2.80;;
43945;SDS011;29599;51.196;4.428;2022-09-09T07:38:16;8.20;;;2.40;;
43945;SDS011;29599;51.196;4.428;2022-09-09T07:40:43;10.23;;;2.40;;
43945;SDS011;29599;51.196;4.428;2022-09-09T07:43:09;18.52;;;2.25;;
43945;SDS011;29599;51.196;4.428;2022-09-09T07:45:36;17.10;;;3.08;;
43945;SDS011;29599;51.196;4.428;2022-09-09T07:48:02;12.43;;;2.72;;
43945;SDS011;29599;51.196;4.428;2022-09-09T07:50:28;11.25;;;2.58;;
43945;SDS011;29599;51.196;4.428;2022-09-09T07:52:54;16.60;;;2.30;;
43945;SDS011;29599;51.196;4.428;2022-09-09T07:55:20;14.77;;;3.33;;
43945;SDS011;29599;51.196;4.428;2022-09-09T07:57:50;12.27;;;2.15;;
43945;SDS011;29599;51.196;4.428;2022-09-09T08:00:16;15.20;;;2.75;;
43945;SDS011;29599;51.196;4.428;2022-09-09T08:02:43;17.05;;;2.60;;
43945;SDS011;29599;51.196;4.428;2022-09-09T08:05:09;10.10;;;2.17;;
43945;SDS011;29599;51.196;4.428;2022-09-09T08:07:34;16.63;;;2.90;;
43945;SDS011;29599;51.196;4.428;2022-09-09T08:10:00;12.10;;;2.65;;
43945;SDS011;29599;51.196;4.428;2022-09-09T08:12:27;13.57;;;2.13;;
43945;SDS011;29599;51.196;4.428;2022-09-09T08:14:52;13.57;;;2.40;;
43945;SDS011;29599;51.196;4.428;2022-09-09T08:17:19;12.55;;;2.03;;
43945;SDS011;29599;51.196;4.428;2022-09-09T08:19:45;14.23;;;2.63;;
43945;SDS011;29599;51.196;4.428;2022-09-09T08:22:10;8.13;;;2.00;;
43945;SDS011;29599;51.196;4.428;2022-09-09T08:24:36;7.22;;;2.08;;
43945;SDS011;29599;51.196;4.428;2022-09-09T08:27:01;9.73;;;2.55;;
43945;SDS011;29599;51.196;4.428;2022-09-09T08:29:27;11.95;;;2.58;;
43945;SDS011;29599;51.196;4.428;2022-09-09T08:31:54;14.45;;;2.50;;
43945;SDS011;29599;51.196;4.428;2022-09-09T08:34:22;15.30;;;2.55;;
43945;SDS011;29599;51.196;4.428;2022-09-09T08:36:49;10.25;;;2.10;;
43945;SDS011;29599;51.196;4.428;2022-09-09T08:39:16;15.30;;;2.35;;
43945;SDS011;29599;51.196;4.428;2022-09-09T08:41:48;17.80;;;3.20;;
43945;SDS011;29599;51.196;4.428;2022-09-09T08:53:01;12.45;;;2.20;;
43945;SDS011;29599;51.196;4.428;2022-09-09T08:55:47;13.35;;;2.15;;
43945;SDS011;29599;51.196;4.428;2022-09-09T08:58:20;11.20;;;2.10;;
43945;SDS011;29599;51.196;4.428;2022-09-09T09:06:32;17.25;;;5.28;;
43945;SDS011;29599;51.196;4.428;2022-09-09T09:12:24;12.85;;;4.50;;
43945;SDS011;29599;51.196;4.428;2022-09-09T09:14:54;20.40;;;8.85;;
43945;SDS011;29599;51.196;4.428;2022-09-09T09:17:24;18.73;;;6.55;;
43945;SDS011;29599;51.196;4.428;2022-09-09T09:19:53;18.58;;;5.57;;
43945;SDS011;29599;51.196;4.428;2022-09-09T09:27:40;12.27;;;3.55;;
43945;SDS011;29599;51.196;4.428;2022-09-09T09:36:11;12.88;;;2.97;;
43945;SDS011;29599;51.196;4.428;2022-09-09T09:38:40;14.18;;;2.55;;
43945;SDS011;29599;51.196;4.428;2022-09-09T09:41:40;7.82;;;2.33;;
43945;SDS011;29599;51.196;4.428;2022-09-09T09:44:22;9.73;;;2.20;;
43945;SDS011;29599;51.196;4.428;2022-09-09T09:49:13;10.63;;;2.28;;
43945;SDS011;29599;51.196;4.428;2022-09-09T09:51:39;14.27;;;2.70;;
43945;SDS011;29599;51.196;4.428;2022-09-09T09:54:16;9.00;;;1.83;;
43945;SDS011;29599;51.196;4.428;2022-09-09T09:57:11;10.00;;;2.28;;
43945;SDS011;29599;51.196;4.428;2022-09-09T09:59:39;8.70;;;2.38;;
43945;SDS011;29599;51.196;4.428;2022-09-09T10:02:31;9.43;;;1.95;;
43945;SDS011;29599;51.196;4.428;2022-09-09T10:05:00;12.20;;;2.00;;
43945;SDS011;29599;51.196;4.428;2022-09-09T10:07:28;12.98;;;2.75;;
43945;SDS011;29599;51.196;4.428;2022-09-09T10:09:55;14.35;;;2.40;;
43945;SDS011;29599;51.196;4.428;2022-09-09T10:14:58;12.88;;;3.05;;
43945;SDS011;29599;51.196;4.428;2022-09-09T10:17:46;11.48;;;2.67;;
43945;SDS011;29599;51.196;4.428;2022-09-09T10:26:40;7.47;;;1.95;;
43945;SDS011;29599;51.196;4.428;2022-09-09T10:32:30;8.15;;;1.95;;
43945;SDS011;29599;51.196;4.428;2022-09-09T10:43:00;6.60;;;1.75;;
43945;SDS011;29599;51.196;4.428;2022-09-09T10:45:47;14.75;;;1.95;;
43945;SDS011;29599;51.196;4.428;2022-09-09T10:48:50;11.10;;;2.80;;
43945;SDS011;29599;51.196;4.428;2022-09-09T10:51:27;8.18;;;2.17;;
43945;SDS011;29599;51.196;4.428;2022-09-09T10:54:22;5.60;;;1.65;;
43945;SDS011;29599;51.196;4.428;2022-09-09T10:56:54;7.13;;;1.95;;
43945;SDS011;29599;51.196;4.428;2022-09-09T10:59:28;8.43;;;1.63;;
43945;SDS011;29599;51.196;4.428;2022-09-09T11:02:47;12.05;;;2.00;;
43945;SDS011;29599;51.196;4.428;2022-09-09T11:05:55;8.32;;;2.35;;
43945;SDS011;29599;51.196;4.428;2022-09-09T11:08:02;8.15;;;1.80;;
43945;SDS011;29599;51.196;4.428;2022-09-09T11:10:38;7.93;;;1.95;;
43945;SDS011;29599;51.196;4.428;2022-09-09T11:13:22;11.52;;;1.77;;
43945;SDS011;29599;51.196;4.428;2022-09-09T11:18:57;9.38;;;2.58;;
43945;SDS011;29599;51.196;4.428;2022-09-09T11:21:31;8.88;;;1.65;;
43945;SDS011;29599;51.196;4.428;2022-09-09T11:24:11;13.27;;;2.03;;
43945;SDS011;29599;51.196;4.428;2022-09-09T11:26:55;9.18;;;1.90;;
43945;SDS011;29599;51.196;4.428;2022-09-09T11:29:41;4.88;;;1.83;;
43945;SDS011;29599;51.196;4.428;2022-09-09T11:38:16;7.88;;;2.30;;
43945;SDS011;29599;51.196;4.428;2022-09-09T11:40:46;10.30;;;1.90;;
43945;SDS011;29599;51.196;4.428;2022-09-09T11:43:24;5.68;;;1.60;;
43945;SDS011;29599;51.196;4.428;2022-09-09T11:45:58;10.30;;;1.63;;
43945;SDS011;29599;51.196;4.428;2022-09-09T11:53:58;8.68;;;1.58;;
43945;SDS011;29599;51.196;4.428;2022-09-09T11:56:34;5.90;;;1.65;;
43945;SDS011;29599;51.196;4.428;2022-09-09T12:02:29;8.68;;;1.48;;
43945;SDS011;29599;51.196;4.428;2022-09-09T12:07:50;21.52;;;2.50;;
43945;SDS011;29599;51.196;4.428;2022-09-09T12:10:22;5.47;;;1.35;;
43945;SDS011;29599;51.196;4.428;2022-09-09T12:18:23;5.13;;;1.30;;
43945;SDS011;29599;51.196;4.428;2022-09-09T12:23:39;2.80;;;1.08;;
43945;SDS011;29599;51.196;4.428;2022-09-09T12:34:02;6.80;;;1.52;;
43945;SDS011;29599;51.196;4.428;2022-09-09T12:36:48;5.35;;;1.67;;
43945;SDS011;29599;51.196;4.428;2022-09-09T12:41:58;8.13;;;1.50;;
43945;SDS011;29599;51.196;4.428;2022-09-09T12:44:24;6.30;;;1.38;;
43945;SDS011;29599;51.196;4.428;2022-09-09T12:46:53;5.90;;;1.40;;
43945;SDS011;29599;51.196;4.428;2022-09-09T12:52:07;3.78;;;1.27;;
43945;SDS011;29599;51.196;4.428;2022-09-09T12:54:42;5.80;;;1.70;;
43945;SDS011;29599;51.196;4.428;2022-09-09T12:57:11;5.78;;;1.88;;
43945;SDS011;29599;51.196;4.428;2022-09-09T12:59:39;7.97;;;2.05;;
43945;SDS011;29599;51.196;4.428;2022-09-09T13:02:23;2.60;;;1.63;;
43945;SDS011;29599;51.196;4.428;2022-09-09T13:04:50;5.53;;;1.42;;
43945;SDS011;29599;51.196;4.428;2022-09-09T13:07:19;6.57;;;1.63;;
43945;SDS011;29599;51.196;4.428;2022-09-09T13:09:47;3.55;;;1.50;;
43945;SDS011;29599;51.196;4.428;2022-09-09T13:12:21;4.88;;;1.40;;
43945;SDS011;29599;51.196;4.428;2022-09-09T13:14:53;6.45;;;1.55;;
43945;SDS011;29599;51.196;4.428;2022-09-09T13:17:22;7.03;;;1.50;;
43945;SDS011;29599;51.196;4.428;2022-09-09T13:19:49;5.45;;;1.60;;
43945;SDS011;29599;51.196;4.428;2022-09-09T13:24:46;5.45;;;1.60;;
43945;SDS011;29599;51.196;4.428;2022-09-09T13:27:26;6.75;;;1.92;;
43945;SDS011;29599;51.196;4.428;2022-09-09T13:29:55;4.78;;;1.75;;
43945;SDS011;29599;51.196;4.428;2022-09-09T13:32:22;2.05;;;1.17;;
43945;SDS011;29599;51.196;4.428;2022-09-09T13:34:52;3.13;;;1.10;;
43945;SDS011;29599;51.196;4.428;2022-09-09T13:37:23;5.65;;;1.08;;
43945;SDS011;29599;51.196;4.428;2022-09-09T13:39:59;4.60;;;1.38;;
43945;SDS011;29599;51.196;4.428;2022-09-09T13:42:28;8.32;;;1.42;;
43945;SDS011;29599;51.196;4.428;2022-09-09T13:44:56;10.85;;;1.52;;
43945;SDS011;29599;51.196;4.428;2022-09-09T13:47:33;5.43;;;1.35;;
43945;SDS011;29599;51.196;4.428;2022-09-09T13:52:50;4.43;;;1.30;;
43945;SDS011;29599;51.196;4.428;2022-09-09T13:55:20;4.80;;;1.17;;
43945;SDS011;29599;51.196;4.428;2022-09-09T13:57:51;4.60;;;1.20;;
43945;SDS011;29599;51.196;4.428;2022-09-09T14:00:17;8.20;;;1.63;;
43945;SDS011;29599;51.196;4.428;2022-09-09T14:02:42;4.78;;;1.33;;
43945;SDS011;29599;51.196;4.428;2022-09-09T14:05:09;10.55;;;1.90;;
43945;SDS011;29599;51.196;4.428;2022-09-09T14:07:36;4.60;;;1.75;;
43945;SDS011;29599;51.196;4.428;2022-09-09T14:10:04;4.13;;;1.30;;
43945;SDS011;29599;51.196;4.428;2022-09-09T14:12:30;5.05;;;1.73;;
43945;SDS011;29599;51.196;4.428;2022-09-09T14:14:56;9.80;;;1.67;;
43945;SDS011;29599;51.196;4.428;2022-09-09T14:17:21;4.25;;;1.10;;
43945;SDS011;29599;51.196;4.428;2022-09-09T14:19:47;3.85;;;1.75;;
43945;SDS011;29599;51.196;4.428;2022-09-09T14:22:13;4.18;;;1.10;;
43945;SDS011;29599;51.196;4.428;2022-09-09T14:24:42;7.90;;;1.10;;
43945;SDS011;29599;51.196;4.428;2022-09-09T14:27:08;2.13;;;1.00;;
43945;SDS011;29599;51.196;4.428;2022-09-09T14:29:33;4.20;;;1.27;;
43945;SDS011;29599;51.196;4.428;2022-09-09T14:31:59;7.57;;;1.30;;
43945;SDS011;29599;51.196;4.428;2022-09-09T14:34:26;5.03;;;1.00;;
43945;SDS011;29599;51.196;4.428;2022-09-09T14:36:51;3.55;;;1.30;;
43945;SDS011;29599;51.196;4.428;2022-09-09T14:39:17;4.03;;;1.25;;
43945;SDS011;29599;51.196;4.428;2022-09-09T14:41:42;3.50;;;1.52;;
43945;SDS011;29599;51.196;4.428;2022-09-09T14:44:08;5.63;;;1.80;;
43945;SDS011;29599;51.196;4.428;2022-09-09T14:46:35;9.48;;;5.35;;
43945;SDS011;29599;51.196;4.428;2022-09-09T14:49:00;11.15;;;1.30;;
43945;SDS011;29599;51.196;4.428;2022-09-09T14:51:26;6.60;;;1.35;;
43945;SDS011;29599;51.196;4.428;2022-09-09T14:53:57;6.82;;;1.38;;
43945;SDS011;29599;51.196;4.428;2022-09-09T14:56:24;5.43;;;1.40;;
43945;SDS011;29599;51.196;4.428;2022-09-09T14:58:55;4.97;;;1.30;;
43945;SDS011;29599;51.196;4.428;2022-09-09T15:01:21;6.63;;;1.88;;
43945;SDS011;29599;51.196;4.428;2022-09-09T15:03:52;5.10;;;1.48;;
43945;SDS011;29599;51.196;4.428;2022-09-09T15:06:19;7.13;;;3.72;;
43945;SDS011;29599;51.196;4.428;2022-09-09T15:08:45;4.72;;;1.23;;
43945;SDS011;29599;51.196;4.428;2022-09-09T15:11:12;4.68;;;1.48;;
43945;SDS011;29599;51.196;4.428;2022-09-09T15:13:40;5.25;;;1.40;;
43945;SDS011;29599;51.196;4.428;2022-09-09T15:16:08;11.38;;;1.88;;
43945;SDS011;29599;51.196;4.428;2022-09-09T15:18:36;8.80;;;1.65;;
43945;SDS011;29599;51.196;4.428;2022-09-09T15:21:05;8.63;;;1.83;;
43945;SDS011;29599;51.196;4.428;2022-09-09T15:23:34;6.97;;;1.30;;
43945;SDS011;29599;51.196;4.428;2022-09-09T15:28:26;4.00;;;1.50;;
43945;SDS011;29599;51.196;4.428;2022-09-09T15:30:52;6.97;;;2.00;;
43945;SDS011;29599;51.196;4.428;2022-09-09T15:33:19;4.28;;;1.45;;
43945;SDS011;29599;51.196;4.428;2022-09-09T15:35:45;6.53;;;1.83;;
43945;SDS011;29599;51.196;4.428;2022-09-09T15:38:11;3.80;;;1.60;;
43945;SDS011;29599;51.196;4.428;2022-09-09T15:40:41;4.53;;;1.50;;
43945;SDS011;29599;51.196;4.428;2022-09-09T15:43:07;8.07;;;1.50;;
43945;SDS011;29599;51.196;4.428;2022-09-09T15:45:34;3.72;;;1.70;;
43945;SDS011;29599;51.196;4.428;2022-09-09T15:48:00;7.30;;;1.75;;
43945;SDS011;29599;51.196;4.428;2022-09-09T15:50:27;7.10;;;2.15;;
43945;SDS011;29599;51.196;4.428;2022-09-09T15:52:55;9.68;;;1.90;;
43945;SDS011;29599;51.196;4.428;2022-09-09T15:55:21;6.75;;;2.15;;
43945;SDS011;29599;51.196;4.428;2022-09-09T15:57:46;4.85;;;1.15;;
43945;SDS011;29599;51.196;4.428;2022-09-09T16:00:12;2.42;;;1.00;;
43945;SDS011;29599;51.196;4.428;2022-09-09T16:02:38;5.75;;;1.33;;
43945;SDS011;29599;51.196;4.428;2022-09-09T16:05:04;7.63;;;1.58;;
43945;SDS011;29599;51.196;4.428;2022-09-09T16:07:31;2.75;;;1.20;;
43945;SDS011;29599;51.196;4.428;2022-09-09T16:09:56;3.25;;;1.45;;
43945;SDS011;29599;51.196;4.428;2022-09-09T16:12:22;4.68;;;1.55;;
43945;SDS011;29599;51.196;4.428;2022-09-09T16:14:48;2.58;;;1.30;;
43945;SDS011;29599;51.196;4.428;2022-09-09T16:17:14;8.45;;;2.33;;
43945;SDS011;29599;51.196;4.428;2022-09-09T16:19:40;6.03;;;1.92;;
43945;SDS011;29599;51.196;4.428;2022-09-09T16:22:05;4.05;;;1.50;;
43945;SDS011;29599;51.196;4.428;2022-09-09T16:24:31;6.85;;;1.50;;
43945;SDS011;29599;51.196;4.428;2022-09-09T16:26:57;3.28;;;1.83;;
43945;SDS011;29599;51.196;4.428;2022-09-09T16:29:23;5.95;;;2.00;;
43945;SDS011;29599;51.196;4.428;2022-09-09T16:31:52;3.80;;;1.80;;
43945;SDS011;29599;51.196;4.428;2022-09-09T16:34:18;10.52;;;2.20;;
43945;SDS011;29599;51.196;4.428;2022-09-09T16:36:45;5.63;;;2.03;;
43945;SDS011;29599;51.196;4.428;2022-09-09T16:39:13;4.78;;;1.95;;
43945;SDS011;29599;51.196;4.428;2022-09-09T16:41:40;6.80;;;2.15;;
43945;SDS011;29599;51.196;4.428;2022-09-09T16:44:09;8.98;;;2.20;;
43945;SDS011;29599;51.196;4.428;2022-09-09T16:46:37;4.50;;;2.22;;
43945;SDS011;29599;51.196;4.428;2022-09-09T16:49:05;7.28;;;2.42;;
43945;SDS011;29599;51.196;4.428;2022-09-09T16:51:33;9.50;;;2.20;;
43945;SDS011;29599;51.196;4.428;2022-09-09T16:54:01;8.90;;;2.07;;
43945;SDS011;29599;51.196;4.428;2022-09-09T16:56:29;8.75;;;2.40;;
43945;SDS011;29599;51.196;4.428;2022-09-09T16:59:02;7.70;;;2.50;;
43945;SDS011;29599;51.196;4.428;2022-09-09T17:01:34;8.07;;;2.53;;
43945;SDS011;29599;51.196;4.428;2022-09-09T17:04:06;6.50;;;2.53;;
43945;SDS011;29599;51.196;4.428;2022-09-09T17:06:34;8.13;;;2.97;;
43945;SDS011;29599;51.196;4.428;2022-09-09T17:09:03;7.75;;;3.33;;
43945;SDS011;29599;51.196;4.428;2022-09-09T17:11:32;7.55;;;2.80;;
43945;SDS011;29599;51.196;4.428;2022-09-09T17:13:59;6.95;;;2.95;;
43945;SDS011;29599;51.196;4.428;2022-09-09T17:16:26;6.55;;;2.63;;
43945;SDS011;29599;51.196;4.428;2022-09-09T17:18:53;7.97;;;3.15;;
43945;SDS011;29599;51.196;4.428;2022-09-09T17:21:21;7.18;;;2.67;;
43945;SDS011;29599;51.196;4.428;2022-09-09T17:23:48;7.65;;;3.58;;
43945;SDS011;29599;51.196;4.428;2022-09-09T17:26:17;15.90;;;3.35;;
43945;SDS011;29599;51.196;4.428;2022-09-09T17:28:44;3.85;;;2.70;;
43945;SDS011;29599;51.196;4.428;2022-09-09T17:31:11;13.15;;;3.47;;
43945;SDS011;29599;51.196;4.428;2022-09-09T17:33:40;12.80;;;3.22;;
43945;SDS011;29599;51.196;4.428;2022-09-09T17:38:38;12.25;;;3.22;;
43945;SDS011;29599;51.196;4.428;2022-09-09T17:41:11;14.32;;;3.13;;
43945;SDS011;29599;51.196;4.428;2022-09-09T17:43:37;14.48;;;3.65;;
43945;SDS011;29599;51.196;4.428;2022-09-09T17:46:13;8.88;;;3.17;;
43945;SDS011;29599;51.196;4.428;2022-09-09T17:48:47;8.88;;;3.10;;
43945;SDS011;29599;51.196;4.428;2022-09-09T17:51:15;7.97;;;3.60;;
43945;SDS011;29599;51.196;4.428;2022-09-09T17:53:46;13.20;;;3.78;;
43945;SDS011;29599;51.196;4.428;2022-09-09T17:56:14;8.30;;;3.07;;
43945;SDS011;29599;51.196;4.428;2022-09-09T17:58:43;9.52;;;3.85;;